Terminal Aerodrome Forecast
Issued by NWS Bismarck, ND

Home | Current Version | Previous Version | Graphics & Text | Print | Product List | Glossary On
Versions: 1 2 3 4 5 6 7 8 9 10 11 12 13 14 15 16 17
000
FTUS43 KBIS 172322
TAFISN
TAF
KISN 172322Z 1800/1824 22014G20KT P6SM FEW150 FEW250
     FM180200 21007KT P6SM FEW150 FEW250 WS020/24040KT
     FM180500 25010KT P6SM FEW150 SCT250 WS020/27050KT
     FM180800 28018G26KT P6SM FEW150 FEW250
     FM181300 28016KT P6SM FEW250=

USA.gov is the U.S. government's official web portal to all federal, state and local government web resources and services.